Time;durP1;ratioP1;P1;durP2;ratioP2;P2;SDS_P1;SDS_P2;PMS_P1;PMS_P2;Temp;Humidity;BMP_temperature;BMP_pressure;BME280_temperature;BME280_humidity;BME280_pressure;Samples;Min_cycle;Max_cycle;Signal;HPM_P1;HPM_P2
2023/07/18 00:00:18;;;;;;;21.88;8.57;;;;;;;30.88;34.01;98753.25;5055489;28;20029;-69
2023/07/18 00:02:44;;;;;;;19.63;8.15;;;;;;;30.93;33.84;98762.19;5007294;28;20033;-68
2023/07/18 00:05:14;;;;;;;13.20;6.90;;;;;;;30.82;33.24;98755.31;5006451;28;20045;-68
2023/07/18 00:07:41;;;;;;;13.73;6.47;;;;;;;30.90;33.33;98753.75;5037045;28;20052;-69
2023/07/18 00:10:08;;;;;;;16.00;7.35;;;;;;;30.98;33.06;98763.97;5002218;28;20065;-68
2023/07/18 00:12:36;;;;;;;15.27;7.88;;;;;;;31.02;33.05;98748.50;5018226;28;20051;-69
2023/07/18 00:15:04;;;;;;;17.92;7.82;;;;;;;31.13;33.20;98755.38;5034786;28;20136;-70
2023/07/18 00:17:32;;;;;;;18.77;7.68;;;;;;;30.89;33.54;98757.63;5035366;28;20045;-69
2023/07/18 00:19:59;;;;;;;14.73;7.30;;;;;;;30.71;33.45;98747.59;5018775;28;20044;-69
2023/07/18 00:22:24;;;;;;;16.60;7.57;;;;;;;30.73;33.73;98756.31;5018459;28;20048;-69
2023/07/18 00:24:51;;;;;;;12.98;6.88;;;;;;;30.85;33.54;98753.88;5002667;28;20040;-74
2023/07/18 00:27:17;;;;;;;17.15;7.13;;;;;;;30.73;33.40;98757.16;5020510;28;20463;-67
2023/07/18 00:29:43;;;;;;;15.18;7.43;;;;;;;30.82;33.38;98754.50;5003841;28;20049;-67
2023/07/18 00:32:10;;;;;;;16.52;7.47;;;;;;;31.24;33.19;98755.91;5003946;28;20550;-68
2023/07/18 00:34:40;;;;;;;13.25;6.45;;;;;;;31.02;33.20;98754.00;5053200;28;20077;-68
2023/07/18 00:37:07;;;;;;;12.02;6.20;;;;;;;31.09;33.29;98748.91;5020062;28;20074;-69
2023/07/18 00:39:33;;;;;;;16.17;6.38;;;;;;;31.02;33.18;98757.56;5036631;28;20105;-68
2023/07/18 00:42:00;;;;;;;12.45;6.63;;;;;;;31.14;33.35;98762.47;5004208;28;20045;-67
2023/07/18 00:44:27;;;;;;;17.70;7.03;;;;;;;31.07;33.42;98757.44;5004333;28;20044;-67
2023/07/18 00:46:53;;;;;;;21.23;7.30;;;;;;;30.86;34.01;98756.31;5003616;28;20101;-69
2023/07/18 00:49:20;;;;;;;16.23;6.55;;;;;;;30.70;34.14;98743.25;5004314;28;20044;-67
2023/07/18 00:51:46;;;;;;;10.20;5.38;;;;;;;31.02;33.37;98748.50;5020032;28;20066;-67
2023/07/18 00:54:13;;;;;;;13.30;5.60;;;;;;;30.96;33.34;98744.28;5003621;28;20399;-68
2023/07/18 00:56:39;;;;;;;9.88;5.40;;;;;;;31.01;33.21;98746.91;5019635;28;20048;-70
2023/07/18 00:59:05;;;;;;;12.73;5.50;;;;;;;31.00;33.26;98739.78;5003619;28;20044;-68
2023/07/18 01:01:32;;;;;;;11.13;5.60;;;;;;;31.00;33.69;98743.34;5003669;28;20102;-68
2023/07/18 01:03:58;;;;;;;11.57;5.20;;;;;;;30.96;33.50;98738.78;5036298;28;20041;-68
2023/07/18 01:06:24;;;;;;;10.68;5.65;;;;;;;31.15;33.83;98731.97;5002506;28;20491;-68
2023/07/18 01:08:51;;;;;;;13.02;5.18;;;;;;;30.97;33.73;98733.00;5052554;28;20531;-68
2023/07/18 01:11:18;;;;;;;9.07;4.75;;;;;;;30.95;34.29;98721.50;5052577;28;20497;-68
2023/07/18 01:13:44;;;;;;;11.38;4.60;;;;;;;30.77;33.90;98714.28;5036064;28;20052;-67
2023/07/18 01:16:09;;;;;;;9.18;4.78;;;;;;;31.01;33.52;98716.72;5003072;28;20159;-67
2023/07/18 01:18:37;;;;;;;10.60;4.32;;;;;;;31.13;33.18;98711.47;5052316;28;20053;-67
2023/07/18 01:21:03;;;;;;;10.70;4.20;;;;;;;30.96;33.69;98705.88;5035984;28;20045;-67
2023/07/18 01:23:29;;;;;;;7.65;4.32;;;;;;;30.50;33.89;98688.91;5037054;28;20110;-69
2023/07/18 01:25:57;;;;;;;11.02;4.78;;;;;;;30.91;33.59;98692.28;5055611;28;20094;-69
2023/07/18 01:28:23;;;;;;;8.27;5.10;;;;;;;31.13;33.25;98690.34;5003906;28;20048;-68
2023/07/18 01:30:49;;;;;;;9.02;4.68;;;;;;;31.20;33.41;98692.63;5019253;28;20406;-69
2023/07/18 01:33:15;;;;;;;12.02;4.60;;;;;;;31.11;33.43;98678.88;5035438;28;20033;-70
2023/07/18 01:35:41;;;;;;;8.43;4.72;;;;;;;31.28;33.49;98677.31;5020288;28;20072;-70
2023/07/18 01:38:07;;;;;;;8.23;4.80;;;;;;;31.34;33.34;98670.63;5020814;28;20148;-69
2023/07/18 01:40:33;;;;;;;6.47;4.63;;;;;;;31.35;33.82;98662.09;5019575;28;20044;-68
2023/07/18 01:43:01;;;;;;;6.20;4.30;;;;;;;31.27;33.44;98654.59;5020908;28;20052;-68
2023/07/18 01:45:27;;;;;;;5.65;4.40;;;;;;;31.27;34.02;98651.03;5021579;28;20445;-68
2023/07/18 01:47:54;;;;;;;6.40;4.68;;;;;;;31.17;34.11;98644.69;5037993;28;20137;-68
2023/07/18 01:50:20;;;;;;;7.85;5.00;;;;;;;31.06;34.30;98640.59;5054259;28;20074;-68
2023/07/18 01:52:50;;;;;;;13.90;5.35;;;;;;;31.11;34.29;98643.22;5021171;28;20161;-66
2023/07/18 01:55:16;;;;;;;13.23;5.40;;;;;;;31.09;34.40;98637.22;5021611;28;20044;-67
2023/07/18 01:57:43;;;;;;;9.30;4.70;;;;;;;31.26;34.34;98632.94;5022047;28;20053;-68
2023/07/18 02:00:11;;;;;;;10.38;4.75;;;;;;;31.22;34.22;98620.97;5051539;28;20068;-68
2023/07/18 02:02:45;;;;;;;6.00;4.55;;;;;;;31.15;34.74;98630.47;5036261;28;20040;-68
2023/07/18 02:05:16;;;;;;;8.85;4.38;;;;;;;31.21;34.49;98630.34;5002803;28;20511;-68
2023/07/18 02:07:42;;;;;;;13.02;5.53;;;;;;;31.10;34.66;98627.06;5049505;28;20044;-68
2023/07/18 02:10:08;;;;;;;6.82;4.45;;;;;;;31.02;34.43;98619.59;5032847;28;20056;-68
2023/07/18 02:12:36;;;;;;;10.95;5.45;;;;;;;30.96;34.33;98610.72;5001738;28;20091;-69
2023/07/18 02:15:06;;;;;;;9.10;5.40;;;;;;;30.95;34.60;98622.78;5016912;28;20479;-69
2023/07/18 02:17:34;;;;;;;9.10;5.47;;;;;;;30.84;34.52;98623.38;5033421;28;20045;-69
2023/07/18 02:20:06;;;;;;;10.85;5.50;;;;;;;30.80;34.84;98630.59;5016593;28;20045;-69
2023/07/18 02:22:34;;;;;;;15.18;7.13;;;;;;;30.55;36.41;98636.72;5001479;28;20064;-70
2023/07/18 02:25:02;;;;;;;11.25;6.47;;;;;;;30.60;36.23;98631.09;5034720;28;20102;-68
2023/07/18 02:27:33;;;;;;;14.90;6.40;;;;;;;30.59;36.26;98635.78;5003365;28;20033;-68
2023/07/18 02:30:02;;;;;;;19.85;6.38;;;;;;;30.36;36.47;98630.59;5001912;28;20053;-68
2023/07/18 02:32:40;;;;;;;14.07;7.38;;;;;;;30.49;37.11;98632.47;5035569;28;20075;-68
2023/07/18 02:35:08;;;;;;;21.88;7.80;;;;;;;30.29;37.50;98625.53;5018805;28;20372;-68
2023/07/18 02:37:36;;;;;;;18.63;7.60;;;;;;;30.32;37.75;98626.84;5018703;28;20419;-68
2023/07/18 02:40:09;;;;;;;18.80;7.22;;;;;;;30.21;37.70;98622.72;5018069;28;20329;-68
2023/07/18 02:42:39;;;;;;;10.43;6.47;;;;;;;29.94;37.79;98607.16;5019647;28;20045;-68
2023/07/18 02:45:09;;;;;;;14.48;6.10;;;;;;;30.32;37.90;98616.69;5034627;28;20502;-68
2023/07/18 02:47:38;;;;;;;8.88;5.57;;;;;;;30.23;37.41;98610.34;5035117;28;20486;-67
2023/07/18 02:50:05;;;;;;;14.60;6.35;;;;;;;30.42;37.26;98615.63;5034326;28;20139;-67
2023/07/18 02:52:32;;;;;;;14.88;6.05;;;;;;;30.50;36.67;98621.19;5017288;28;20057;-67
2023/07/18 02:54:58;;;;;;;10.07;5.82;;;;;;;30.68;36.59;98620.19;5017297;28;20060;-68
2023/07/18 02:57:24;;;;;;;11.45;6.68;;;;;;;30.81;36.71;98619.34;5000923;28;20195;-68
2023/07/18 02:59:50;;;;;;;10.90;5.72;;;;;;;30.86;35.77;98612.91;4984234;28;20049;-67
2023/07/18 03:02:16;;;;;;;13.95;5.50;;;;;;;30.82;35.69;98617.38;5016959;28;20395;-67
2023/07/18 03:04:43;;;;;;;16.30;5.75;;;;;;;30.77;36.35;98620.25;5000287;28;20099;-67
2023/07/18 03:07:09;;;;;;;16.88;6.50;;;;;;;30.62;36.69;98607.72;5001583;28;20140;-68
2023/07/18 03:09:34;;;;;;;17.48;6.10;;;;;;;30.63;36.77;98619.53;5001164;28;20130;-69
2023/07/18 03:12:02;;;;;;;20.20;7.07;;;;;;;30.52;37.38;98623.63;5019005;28;20049;-68
2023/07/18 03:14:30;;;;;;;10.98;6.07;;;;;;;30.52;37.32;98618.16;5017873;28;20049;-68
2023/07/18 03:16:56;;;;;;;11.15;6.75;;;;;;;30.54;37.55;98610.41;5017200;28;20107;-68
2023/07/18 03:19:23;;;;;;;15.45;7.30;;;;;;;30.70;37.70;98615.22;5000013;28;20127;-69
2023/07/18 03:21:50;;;;;;;15.55;6.40;;;;;;;30.47;37.94;98610.03;5000473;28;20044;-68
2023/07/18 03:24:17;;;;;;;14.63;6.55;;;;;;;30.46;37.85;98611.16;5000271;28;20105;-70
2023/07/18 03:26:43;;;;;;;18.80;6.35;;;;;;;30.38;37.46;98614.66;4983933;28;20045;-68
2023/07/18 03:29:09;;;;;;;22.40;7.70;;;;;;;30.41;37.91;98603.91;5017273;28;20433;-70
2023/07/18 03:31:36;;;;;;;9.20;6.43;;;;;;;30.37;37.81;98599.34;5012094;28;20140;-67
2023/07/18 03:34:04;;;;;;;8.70;5.47;;;;;;;30.45;37.53;98604.06;5017842;28;20549;-69
2023/07/18 03:36:32;;;;;;;8.30;5.38;;;;;;;30.61;37.12;98600.66;5036268;28;20109;-68
2023/07/18 03:38:58;;;;;;;13.60;5.65;;;;;;;30.54;37.21;98593.97;5052563;28;20081;-67
2023/07/18 03:41:27;;;;;;;13.07;6.30;;;;;;;30.58;37.17;98584.00;5021239;28;20406;-68
2023/07/18 03:43:54;;;;;;;16.58;6.45;;;;;;;30.74;37.35;98598.91;5003834;28;20116;-68
2023/07/18 03:46:21;;;;;;;10.55;6.60;;;;;;;30.69;37.16;98597.13;5051692;28;20045;-67
2023/07/18 03:48:47;;;;;;;16.17;6.40;;;;;;;30.78;37.50;98597.22;5052859;28;20490;-67
2023/07/18 03:51:14;;;;;;;11.82;6.30;;;;;;;30.76;37.42;98591.22;5037138;28;20094;-67
2023/07/18 03:53:41;;;;;;;10.10;6.18;;;;;;;30.79;37.23;98594.16;5053256;28;20087;-67
2023/07/18 03:56:08;;;;;;;12.52;6.90;;;;;;;30.83;36.93;98597.09;5020075;28;20049;-67
2023/07/18 03:58:34;;;;;;;13.43;6.65;;;;;;;30.99;36.96;98579.09;5019339;28;20128;-66
2023/07/18 04:01:10;;;;;;;13.65;7.10;;;;;;;31.31;36.78;98581.50;5053120;28;20057;-70
2023/07/18 04:03:37;;;;;;;11.52;6.15;;;;;;;31.30;36.37;98584.56;5036260;28;20121;-68
2023/07/18 04:06:04;;;;;;;12.75;6.72;;;;;;;31.10;36.31;98574.94;5049254;28;20045;-68
2023/07/18 04:08:30;;;;;;;14.70;6.78;;;;;;;31.15;36.30;98574.81;5053794;28;20068;-68
2023/07/18 04:10:57;;;;;;;15.70;6.63;;;;;;;31.07;36.84;98581.06;5052582;28;20053;-69
2023/07/18 04:13:23;;;;;;;10.07;6.05;;;;;;;31.21;36.62;98568.06;5052884;28;20040;-70
2023/07/18 04:15:49;;;;;;;15.32;6.53;;;;;;;31.35;36.76;98576.19;5052478;28;20190;-70
2023/07/18 04:18:15;;;;;;;20.27;6.78;;;;;;;31.30;36.65;98568.09;5052266;28;20097;-69
2023/07/18 04:20:41;;;;;;;14.68;7.40;;;;;;;31.44;36.77;98558.63;5035538;28;20384;-71
2023/07/18 04:23:07;;;;;;;13.80;7.00;;;;;;;31.70;36.59;98570.47;5052084;28;20056;-70
2023/07/18 04:25:35;;;;;;;11.38;6.75;;;;;;;31.80;36.30;98572.88;5052252;28;20037;-69
2023/07/18 04:28:02;;;;;;;13.73;7.10;;;;;;;31.94;36.61;98570.00;5035555;28;20125;-70
2023/07/18 04:30:29;;;;;;;18.08;7.50;;;;;;;32.03;36.46;98571.63;5052908;28;20049;-69
2023/07/18 04:32:55;;;;;;;14.75;6.63;;;;;;;32.12;36.70;98564.19;5050300;28;20499;-68
2023/07/18 04:35:21;;;;;;;9.93;6.15;;;;;;;32.11;36.23;98559.84;5049952;28;20041;-68
2023/07/18 04:37:48;;;;;;;11.68;6.75;;;;;;;32.30;36.07;98574.06;5018511;28;20048;-67
2023/07/18 04:40:15;;;;;;;9.95;6.35;;;;;;;32.42;36.64;98574.25;5052454;28;20102;-67
2023/07/18 04:42:41;;;;;;;18.33;7.13;;;;;;;32.58;36.35;98572.56;5034804;28;20049;-67
2023/07/18 04:45:07;;;;;;;10.30;6.35;;;;;;;32.71;36.32;98576.28;5051528;28;20056;-68
2023/07/18 04:47:33;;;;;;;29.60;9.35;;;;;;;32.65;36.28;98572.09;5053695;28;20055;-69
2023/07/18 04:49:59;;;;;;;17.95;6.93;;;;;;;32.71;36.53;98576.28;5036045;28;20047;-68
2023/07/18 04:52:24;;;;;;;13.25;6.15;;;;;;;32.51;36.27;98564.03;5052852;28;20483;-68
2023/07/18 04:54:50;;;;;;;9.93;6.07;;;;;;;32.75;36.39;98551.69;5051876;28;20055;-67
2023/07/18 04:57:17;;;;;;;10.20;6.35;;;;;;;32.67;36.65;98554.09;5052630;28;20483;-68
2023/07/18 04:59:44;;;;;;;10.73;6.38;;;;;;;33.00;35.96;98551.59;5035316;28;20045;-68
2023/07/18 05:02:11;;;;;;;16.77;6.85;;;;;;;32.91;36.04;98550.84;5051452;28;20118;-69
2023/07/18 05:04:37;;;;;;;11.10;6.50;;;;;;;33.00;35.98;98548.06;5051595;28;20033;-68
2023/07/18 05:07:03;;;;;;;19.83;7.25;;;;;;;33.13;36.08;98544.25;5051548;28;20090;-68
2023/07/18 05:09:29;;;;;;;12.15;6.50;;;;;;;33.33;35.64;98543.50;5035253;28;20056;-68
2023/07/18 05:11:55;;;;;;;10.43;6.53;;;;;;;33.51;35.38;98531.28;5050449;28;20051;-68
2023/07/18 05:14:22;;;;;;;15.80;5.82;;;;;;;33.26;35.19;98521.22;5051482;28;20583;-68
2023/07/18 05:16:49;;;;;;;12.90;5.90;;;;;;;33.73;35.03;98528.22;5035008;28;20037;-68
2023/07/18 05:19:15;;;;;;;17.50;7.05;;;;;;;34.17;34.27;98522.03;5034648;28;20138;-68
2023/07/18 05:21:41;;;;;;;11.75;6.30;;;;;;;34.45;33.78;98533.28;4986250;28;20041;-68
2023/07/18 05:24:07;;;;;;;12.65;5.68;;;;;;;34.61;33.44;98529.56;5051337;28;20045;-68
2023/07/18 05:26:33;;;;;;;10.80;6.00;;;;;;;34.72;32.90;98524.41;5051621;28;20049;-69
2023/07/18 05:28:58;;;;;;;9.90;4.97;;;;;;;34.76;33.17;98517.88;5052370;28;20049;-68
2023/07/18 05:31:24;;;;;;;9.65;5.05;;;;;;;34.66;32.90;98523.03;5051144;28;20048;-68
2023/07/18 05:33:50;;;;;;;6.10;4.80;;;;;;;34.88;32.40;98506.06;5051323;28;20060;-70
2023/07/18 05:36:16;;;;;;;5.43;4.47;;;;;;;35.47;31.70;98521.81;5018008;28;20048;-69
2023/07/18 05:38:43;;;;;;;11.15;5.68;;;;;;;35.83;31.40;98526.50;5035015;28;20475;-70
2023/07/18 05:41:09;;;;;;;8.50;5.00;;;;;;;35.57;31.49;98520.53;5052668;28;20102;-72
2023/07/18 05:43:35;;;;;;;13.02;5.32;;;;;;;35.75;31.29;98521.91;4984994;28;20445;-69
2023/07/18 05:46:01;;;;;;;9.82;4.55;;;;;;;35.84;30.80;98516.25;5051267;28;20063;-69
2023/07/18 05:48:27;;;;;;;9.93;4.45;;;;;;;35.70;31.10;98509.09;5051465;28;20070;-69
2023/07/18 05:50:55;;;;;;;7.03;4.60;;;;;;;35.83;30.76;98515.44;5051806;28;20091;-69
2023/07/18 05:53:22;;;;;;;6.20;4.78;;;;;;;35.64;31.58;98518.78;5050320;28;20045;-69
2023/07/18 05:55:50;;;;;;;6.95;4.53;;;;;;;35.53;30.89;98503.88;5051405;28;20076;-68
2023/07/18 05:58:16;;;;;;;8.65;4.85;;;;;;;35.62;30.87;98500.97;5051790;28;20041;-68
2023/07/18 06:00:43;;;;;;;4.90;4.05;;;;;;;35.36;31.22;98484.00;5051833;28;20136;-69
2023/07/18 06:03:09;;;;;;;7.43;4.57;;;;;;;35.22;31.55;98495.38;5034526;28;20056;-70
2023/07/18 06:05:36;;;;;;;9.98;5.13;;;;;;;35.13;31.84;98480.88;5034130;28;20075;-71
2023/07/18 06:08:03;;;;;;;12.93;5.53;;;;;;;35.27;32.16;98469.47;5017671;28;20390;-69
2023/07/18 06:10:29;;;;;;;11.68;5.10;;;;;;;35.02;32.06;98470.66;5051612;28;20044;-69
2023/07/18 06:12:56;;;;;;;8.27;5.00;;;;;;;35.09;31.68;98474.44;5033212;28;20049;-68
2023/07/18 06:15:22;;;;;;;8.80;4.80;;;;;;;35.14;31.74;98467.88;5033808;28;20037;-70
2023/07/18 06:17:49;;;;;;;11.60;5.28;;;;;;;35.29;31.61;98456.13;5051296;28;20055;-69
2023/07/18 06:20:16;;;;;;;6.65;4.80;;;;;;;35.80;31.28;98462.81;5050224;28;20382;-71
2023/07/18 06:22:44;;;;;;;8.27;5.25;;;;;;;35.47;31.35;98457.50;5034166;28;20049;-70
2023/07/18 06:25:14;;;;;;;10.35;5.25;;;;;;;35.80;30.71;98462.81;5051559;28;20133;-71
2023/07/18 06:27:40;;;;;;;8.52;5.35;;;;;;;35.51;31.01;98456.47;5000954;28;20054;-70
2023/07/18 06:30:06;;;;;;;11.98;4.97;;;;;;;36.12;30.79;98453.50;4985001;28;20044;-70
2023/07/18 06:32:32;;;;;;;7.22;4.80;;;;;;;36.54;30.25;98446.34;5017307;28;20071;-70
2023/07/18 06:34:58;;;;;;;11.15;5.30;;;;;;;37.08;29.57;98445.34;5017170;28;20471;-69
2023/07/18 06:37:24;;;;;;;12.82;4.88;;;;;;;37.51;28.45;98443.56;5000799;28;20048;-71
2023/07/18 06:39:53;;;;;;;8.32;4.75;;;;;;;37.38;28.09;98442.91;5017424;28;20040;-70
2023/07/18 06:42:20;;;;;;;10.07;4.57;;;;;;;37.79;28.04;98449.72;5017230;28;20044;-69
2023/07/18 06:44:47;;;;;;;11.68;4.55;;;;;;;37.45;27.89;98459.66;5017374;28;20507;-69
2023/07/18 06:47:13;;;;;;;11.85;4.85;;;;;;;37.23;27.50;98452.03;5016977;28;20118;-67
2023/07/18 06:49:39;;;;;;;13.63;4.68;;;;;;;37.23;28.02;98452.84;5016470;28;20107;-71
2023/07/18 06:52:05;;;;;;;8.85;5.53;;;;;;;37.45;27.58;98450.56;5049688;28;20582;-71
2023/07/18 06:54:31;;;;;;;6.85;4.80;;;;;;;37.40;27.29;98450.84;5033587;28;20037;-71
2023/07/18 06:56:59;;;;;;;9.38;4.40;;;;;;;37.38;27.82;98454.00;5050620;28;20044;-71
2023/07/18 06:59:25;;;;;;;11.70;5.10;;;;;;;37.56;27.84;98443.28;5050818;28;20048;-71
2023/07/18 07:01:50;;;;;;;9.18;4.57;;;;;;;38.15;26.55;98443.75;5054758;28;20033;-73
2023/07/18 07:04:18;;;;;;;11.70;5.63;;;;;;;38.17;26.71;98453.31;4997785;28;20046;-75
2023/07/18 07:06:44;;;;;;;6.93;4.63;;;;;;;38.08;26.70;98449.94;5018366;28;20045;-74
2023/07/18 07:09:13;;;;;;;6.05;4.82;;;;;;;38.15;26.45;98449.31;5034474;28;20109;-72
2023/07/18 07:11:39;;;;;;;10.43;5.40;;;;;;;38.34;26.38;98441.75;5035351;28;20045;-73
2023/07/18 07:14:06;;;;;;;8.35;4.97;;;;;;;37.94;26.86;98444.13;5017337;28;20041;-72
2023/07/18 07:16:33;;;;;;;9.05;5.20;;;;;;;38.15;26.77;98432.66;5034059;28;20479;-79
2023/07/18 07:18:59;;;;;;;13.00;5.00;;;;;;;38.07;26.31;98428.13;5017524;28;20482;-72
2023/07/18 07:21:27;;;;;;;11.40;5.18;;;;;;;38.20;26.70;98421.25;5033678;28;20041;-75
2023/07/18 07:23:53;;;;;;;16.58;5.30;;;;;;;38.63;26.34;98420.84;5017342;28;20079;-70
2023/07/18 07:26:19;;;;;;;14.30;5.63;;;;;;;39.10;25.92;98414.88;5034506;28;20052;-71
2023/07/18 07:28:46;;;;;;;9.35;4.43;;;;;;;39.63;25.01;98413.66;5033929;28;20037;-71
2023/07/18 07:31:12;;;;;;;12.57;5.40;;;;;;;39.96;24.71;98417.28;5034616;28;20054;-71
2023/07/18 07:33:38;;;;;;;8.75;5.05;;;;;;;40.32;23.81;98407.31;5016808;28;20480;-74
2023/07/18 07:36:04;;;;;;;8.32;4.70;;;;;;;40.96;23.10;98411.47;5033382;28;20067;-71
2023/07/18 07:38:30;;;;;;;15.80;4.65;;;;;;;42.04;22.66;98405.72;5033796;28;20045;-73
2023/07/18 07:40:56;;;;;;;9.57;4.55;;;;;;;42.72;21.20;98399.03;5033063;28;20047;-72
2023/07/18 07:43:22;;;;;;;15.13;4.63;;;;;;;43.25;20.58;98410.97;5016755;28;20056;-72
2023/07/18 07:45:48;;;;;;;11.88;4.47;;;;;;;44.88;19.34;98414.50;5021304;28;20045;-71
2023/07/18 07:48:15;;;;;;;9.57;4.10;;;;;;;46.01;17.67;98409.28;5019233;28;20487;-72
2023/07/18 07:50:42;;;;;;;10.20;3.80;;;;;;;46.75;17.07;98417.38;5036686;28;20098;-72
2023/07/18 07:53:09;;;;;;;10.95;4.75;;;;;;;47.18;16.61;98409.03;5053043;28;20076;-72
2023/07/18 07:55:35;;;;;;;9.13;3.67;;;;;;;48.08;15.88;98391.50;5020000;28;20102;-73
2023/07/18 07:58:01;;;;;;;7.68;3.35;;;;;;;48.61;14.41;98396.66;5036306;28;20044;-72
2023/07/18 08:00:27;;;;;;;4.90;3.40;;;;;;;49.45;13.82;98387.22;5020648;28;20505;-73
2023/07/18 08:02:52;;;;;;;5.35;3.45;;;;;;;49.22;13.63;98387.47;5036430;28;20070;-72
2023/07/18 08:05:18;;;;;;;8.77;4.18;;;;;;;49.37;13.39;98366.09;5036253;28;20033;-73
2023/07/18 08:07:44;;;;;;;8.70;3.45;;;;;;;50.26;13.02;98375.09;5053326;28;20360;-73
2023/07/18 08:10:09;;;;;;;9.20;4.10;;;;;;;50.67;12.82;98367.72;5052646;28;20119;-73
2023/07/18 08:12:35;;;;;;;12.20;3.83;;;;;;;50.72;12.82;98362.28;5035122;28;20061;-72
2023/07/18 08:15:01;;;;;;;9.25;3.53;;;;;;;50.18;13.56;98339.81;5052662;28;20052;-74
2023/07/18 08:17:28;;;;;;;11.63;4.00;;;;;;;50.53;12.97;98346.38;5052641;28;20063;-74
2023/07/18 08:19:54;;;;;;;7.35;3.65;;;;;;;49.85;12.83;98351.75;5053123;28;20387;-73
2023/07/18 08:22:19;;;;;;;9.02;4.10;;;;;;;50.17;13.39;98349.53;5019695;28;20053;-73
2023/07/18 08:24:46;;;;;;;15.10;4.30;;;;;;;50.14;12.85;98346.81;5052312;28;20463;-72
2023/07/18 08:27:11;;;;;;;11.23;3.85;;;;;;;50.18;12.44;98327.72;5052546;28;20449;-73
2023/07/18 08:29:37;;;;;;;11.65;3.90;;;;;;;50.40;12.39;98332.25;5052651;28;20131;-72
2023/07/18 08:32:03;;;;;;;4.88;3.42;;;;;;;50.12;12.77;98333.16;5052746;28;20471;-71
2023/07/18 08:34:29;;;;;;;7.85;3.35;;;;;;;50.74;12.42;98325.06;5052321;28;20036;-73
2023/07/18 08:36:55;;;;;;;8.55;3.38;;;;;;;51.65;11.26;98328.19;5051958;28;20130;-73
2023/07/18 08:39:21;;;;;;;4.88;3.55;;;;;;;52.94;11.13;98326.91;5051665;28;20057;-73
2023/07/18 08:41:51;;;;;;;10.95;3.33;;;;;;;53.06;10.50;98333.66;5018268;28;20491;-73
2023/07/18 08:44:19;;;;;;;6.28;3.38;;;;;;;52.41;10.81;98311.34;5052367;28;20040;-72
2023/07/18 08:46:48;;;;;;;11.60;4.10;;;;;;;52.67;10.86;98326.06;5035184;28;20045;-73
2023/07/18 08:49:17;;;;;;;8.75;3.85;;;;;;;51.95;11.34;98318.06;5051912;28;20123;-72
2023/07/18 08:51:44;;;;;;;6.45;3.45;;;;;;;52.38;11.14;98312.28;5051133;28;20479;-73
2023/07/18 08:54:11;;;;;;;10.25;3.53;;;;;;;53.48;10.68;98317.53;5050852;28;20187;-73
2023/07/18 08:56:43;;;;;;;6.60;3.55;;;;;;;51.71;11.35;98322.69;5050985;28;20037;-73
2023/07/18 08:59:11;;;;;;;7.50;3.70;;;;;;;50.16;12.27;98302.72;5050687;28;20436;-71
2023/07/18 09:01:48;;;;;;;6.13;3.90;;;;;;;49.21;13.44;98296.38;5052073;28;20049;-73
2023/07/18 09:04:14;;;;;;;9.55;3.72;;;;;;;48.70;14.06;98288.97;5051963;28;20045;-73
2023/07/18 09:06:48;;;;;;;9.50;4.05;;;;;;;48.96;13.58;98279.38;5051943;28;20045;-71
2023/07/18 09:09:20;;;;;;;7.10;3.92;;;;;;;48.75;13.77;98277.13;5051366;28;20335;-71
2023/07/18 09:11:59;;;;;;;9.30;3.67;;;;;;;50.88;12.38;98284.94;5050928;28;20552;-72
2023/07/18 09:14:26;;;;;;;7.10;3.63;;;;;;;51.12;12.39;98281.22;5051639;28;20118;-72
2023/07/18 09:16:58;;;;;;;7.82;3.85;;;;;;;51.31;12.00;98279.31;5051325;28;20506;-71
2023/07/18 09:19:39;;;;;;;5.43;4.20;;;;;;;50.97;12.28;98268.03;5034155;28;20083;-72
2023/07/18 09:22:07;;;;;;;7.93;4.13;;;;;;;49.68;13.14;98251.47;5051790;28;20048;-71
2023/07/18 09:24:35;;;;;;;9.68;4.20;;;;;;;50.24;12.77;98250.41;5052648;28;20076;-71
2023/07/18 09:27:07;;;;;;;10.48;4.05;;;;;;;49.79;13.02;98254.75;5051040;28;20048;-72
2023/07/18 09:29:34;;;;;;;10.30;4.30;;;;;;;48.46;14.12;98243.25;5052055;28;20157;-70
2023/07/18 09:32:00;;;;;;;13.90;5.00;;;;;;;47.63;14.94;98253.34;5034246;28;20049;-71
2023/07/18 09:34:27;;;;;;;10.52;4.45;;;;;;;47.72;14.80;98243.50;5034300;28;20052;-71
2023/07/18 09:37:01;;;;;;;14.90;4.93;;;;;;;48.63;14.32;98241.22;5050647;28;20083;-70
2023/07/18 09:39:27;;;;;;;9.75;4.68;;;;;;;49.19;13.88;98236.81;5051660;28;20063;-71
2023/07/18 09:41:54;;;;;;;8.20;4.40;;;;;;;49.13;14.18;98227.31;5050381;28;20064;-70
2023/07/18 09:44:22;;;;;;;9.95;5.15;;;;;;;48.31;14.88;98218.72;5017423;28;20037;-71
2023/07/18 09:46:49;;;;;;;11.20;4.82;;;;;;;47.91;14.88;98220.91;5049861;28;20099;-71
2023/07/18 09:49:17;;;;;;;8.52;5.18;;;;;;;47.80;15.29;98216.75;5050536;28;20045;-70
2023/07/18 09:52:02;;;;;;;8.27;4.97;;;;;;;47.32;15.77;98212.63;5033257;28;20048;-71
2023/07/18 09:54:30;;;;;;;13.25;5.38;;;;;;;48.23;14.65;98206.81;5050377;28;20080;-70
2023/07/18 09:56:59;;;;;;;10.13;4.05;;;;;;;50.66;13.15;98210.59;5050853;28;20473;-71
2023/07/18 09:59:27;;;;;;;7.80;4.28;;;;;;;52.68;11.30;98205.66;5049889;28;20045;-71
2023/07/18 10:01:54;;;;;;;8.70;4.47;;;;;;;53.68;10.79;98215.56;5050252;28;20127;-70
2023/07/18 10:04:21;;;;;;;9.25;4.55;;;;;;;51.91;11.48;98209.78;5051198;28;20051;-70
2023/07/18 10:06:47;;;;;;;9.48;4.90;;;;;;;49.19;14.01;98202.16;5050695;28;20391;-71
2023/07/18 10:09:13;;;;;;;8.45;4.90;;;;;;;46.77;16.10;98186.47;5050189;28;20660;-70
2023/07/18 10:12:09;;;;;;;9.65;5.50;;;;;;;46.54;16.64;98170.47;5032608;28;20383;-72
2023/07/18 10:14:59;;;;;;;11.02;5.38;;;;;;;46.17;16.81;98173.56;5032331;28;20160;-71
2023/07/18 10:17:31;;;;;;;11.30;4.80;;;;;;;45.47;17.64;98169.88;5048757;28;20055;-73
2023/07/18 10:19:58;;;;;;;8.00;5.43;;;;;;;44.42;18.57;98152.41;5048693;28;20064;-73
2023/07/18 10:22:28;;;;;;;7.60;5.00;;;;;;;43.67;19.59;98125.53;5048801;28;20044;-72
2023/07/18 10:25:07;;;;;;;12.57;5.10;;;;;;;43.40;20.25;98124.50;5048666;28;20076;-72
2023/07/18 10:27:39;;;;;;;10.77;5.80;;;;;;;42.79;20.47;98130.88;5049174;28;20499;-72
2023/07/18 10:30:08;;;;;;;11.40;5.72;;;;;;;41.99;21.58;98137.44;5048595;28;20080;-73
2023/07/18 10:32:36;;;;;;;11.27;6.30;;;;;;;41.31;22.51;98144.97;5031556;28;20078;-71
2023/07/18 10:35:07;;;;;;;13.88;6.13;;;;;;;40.86;23.51;98131.69;5049496;28;20052;-73
2023/07/18 10:37:34;;;;;;;14.30;6.18;;;;;;;39.76;27.10;98170.34;5050709;28;20555;-70
2023/07/18 10:40:04;;;;;;;20.75;5.72;;;;;;;36.76;37.19;98144.91;5048903;28;20454;-73
2023/07/18 10:42:33;;;;;;;102.15;9.20;;;;;;;31.17;100.00;98175.56;5049599;28;20039;-71
2023/07/18 10:45:03;;;;;;;40.55;6.78;;;;;;;32.98;100.00;98163.25;5050785;28;20057;-71
2023/07/18 10:47:37;;;;;;;29.23;5.68;;;;;;;32.07;100.00;98177.03;5049466;28;20048;-72
2023/07/18 10:50:05;;;;;;;23.67;5.65;;;;;;;30.96;100.00;98157.41;5033839;28;20041;-70
2023/07/18 10:52:32;;;;;;;7.15;5.50;;;;;;;31.37;100.00;98146.66;5051843;28;20049;-71
2023/07/18 10:55:00;;;;;;;16.35;7.82;;;;;;;32.27;100.00;98159.75;5054526;28;20052;-71
2023/07/18 10:57:29;;;;;;;14.52;9.15;;;;;;;32.56;100.00;98134.16;5052599;28;20458;-70
2023/07/18 10:59:56;;;;;;;15.60;11.57;;;;;;;33.14;100.00;98124.84;5031569;28;20052;-71
2023/07/18 11:02:22;;;;;;;18.50;12.05;;;;;;;33.64;100.00;98112.44;5032181;28;20387;-72
2023/07/18 11:04:51;;;;;;;19.77;13.27;;;;;;;34.32;100.00;98110.66;5047867;28;20044;-72
2023/07/18 11:07:18;;;;;;;14.32;11.07;;;;;;;34.24;95.24;98114.34;5050185;28;20045;-73
2023/07/18 11:09:44;;;;;;;15.40;9.40;;;;;;;34.52;92.29;98098.63;5048902;28;20091;-73
2023/07/18 11:12:17;;;;;;;11.27;8.35;;;;;;;35.05;89.32;98080.78;5031698;28;20486;-73
2023/07/18 11:14:44;;;;;;;12.40;8.05;;;;;;;34.73;81.93;98090.97;5050602;28;20137;-73
2023/07/18 11:17:14;;;;;;;6.57;5.95;;;;;;;33.85;71.68;98080.06;5051559;28;20052;-73
2023/07/18 11:19:40;;;;;;;7.90;6.65;;;;;;;33.64;69.02;98073.09;5049606;28;20121;-72
2023/07/18 11:22:06;;;;;;;6.82;5.10;;;;;;;33.86;67.92;98069.84;5050082;28;20595;-72
2023/07/18 11:24:33;;;;;;;10.18;5.85;;;;;;;34.20;65.02;98083.09;5049735;28;20041;-72
2023/07/18 11:27:15;;;;;;;9.70;6.10;;;;;;;34.63;62.63;98088.69;5049557;28;20502;-71